sensor_id;sensor_type;location;lat;lon;timestamp;pressure;altitude;pressure_sealevel;temperature;humidity
49461;BME280;35355;49.198;-0.368;2023-02-24T00:01:48;101053.81;;;7.50;85.19
49461;BME280;35355;49.198;-0.368;2023-02-24T00:04:18;101043.41;;;7.47;85.15
49461;BME280;35355;49.198;-0.368;2023-02-24T00:06:45;101053.66;;;7.45;84.97
49461;BME280;35355;49.198;-0.368;2023-02-24T00:09:19;101047.75;;;7.48;85.04
49461;BME280;35355;49.198;-0.368;2023-02-24T00:11:48;101046.13;;;7.47;85.27
49461;BME280;35355;49.198;-0.368;2023-02-24T00:14:16;101038.22;;;7.46;85.17
49461;BME280;35355;49.198;-0.368;2023-02-24T00:16:43;101041.16;;;7.44;84.81
49461;BME280;35355;49.198;-0.368;2023-02-24T00:19:11;101039.50;;;7.43;85.33
49461;BME280;35355;49.198;-0.368;2023-02-24T00:21:37;101033.25;;;7.43;84.91
49461;BME280;35355;49.198;-0.368;2023-02-24T00:24:03;101037.81;;;7.42;84.99
49461;BME280;35355;49.198;-0.368;2023-02-24T00:26:28;101036.78;;;7.43;85.36
49461;BME280;35355;49.198;-0.368;2023-02-24T00:28:57;101026.50;;;7.45;84.96
49461;BME280;35355;49.198;-0.368;2023-02-24T00:31:25;101028.63;;;7.43;85.60
49461;BME280;35355;49.198;-0.368;2023-02-24T00:33:50;101025.91;;;7.43;85.29
49461;BME280;35355;49.198;-0.368;2023-02-24T00:36:19;101042.44;;;7.42;85.26
49461;BME280;35355;49.198;-0.368;2023-02-24T00:38:49;101029.09;;;7.40;85.15
49461;BME280;35355;49.198;-0.368;2023-02-24T00:41:18;101022.00;;;7.39;84.90
49461;BME280;35355;49.198;-0.368;2023-02-24T00:43:47;101023.06;;;7.38;84.80
49461;BME280;35355;49.198;-0.368;2023-02-24T00:46:14;101028.50;;;7.38;84.95
49461;BME280;35355;49.198;-0.368;2023-02-24T00:48:42;101032.28;;;7.37;85.31
49461;BME280;35355;49.198;-0.368;2023-02-24T00:51:11;101022.47;;;7.36;85.10
49461;BME280;35355;49.198;-0.368;2023-02-24T00:53:38;101021.44;;;7.37;85.14
49461;BME280;35355;49.198;-0.368;2023-02-24T00:56:07;101004.50;;;7.35;85.47
49461;BME280;35355;49.198;-0.368;2023-02-24T00:58:37;101020.00;;;7.34;84.95
49461;BME280;35355;49.198;-0.368;2023-02-24T01:01:03;101015.84;;;7.32;84.99
49461;BME280;35355;49.198;-0.368;2023-02-24T01:03:30;101008.78;;;7.31;85.54
49461;BME280;35355;49.198;-0.368;2023-02-24T01:05:59;101011.75;;;7.29;85.54
49461;BME280;35355;49.198;-0.368;2023-02-24T01:08:26;101011.94;;;7.28;85.31
49461;BME280;35355;49.198;-0.368;2023-02-24T01:10:57;100999.22;;;7.28;85.47
49461;BME280;35355;49.198;-0.368;2023-02-24T01:13:41;100997.78;;;7.26;85.17
49461;BME280;35355;49.198;-0.368;2023-02-24T01:16:07;101001.06;;;7.28;85.44
49461;BME280;35355;49.198;-0.368;2023-02-24T01:18:33;101000.25;;;7.27;85.50
49461;BME280;35355;49.198;-0.368;2023-02-24T01:20:59;100996.72;;;7.27;85.16
49461;BME280;35355;49.198;-0.368;2023-02-24T01:23:24;100994.00;;;7.27;85.05
49461;BME280;35355;49.198;-0.368;2023-02-24T01:25:50;100990.22;;;7.28;85.42
49461;BME280;35355;49.198;-0.368;2023-02-24T01:28:15;100995.66;;;7.28;85.50
49461;BME280;35355;49.198;-0.368;2023-02-24T01:30:42;100992.13;;;7.27;85.23
49461;BME280;35355;49.198;-0.368;2023-02-24T01:33:08;100988.59;;;7.27;85.18
49461;BME280;35355;49.198;-0.368;2023-02-24T01:35:39;100990.44;;;7.26;85.49
49461;BME280;35355;49.198;-0.368;2023-02-24T01:38:04;100975.00;;;7.27;85.23
49461;BME280;35355;49.198;-0.368;2023-02-24T01:40:29;100973.56;;;7.24;85.20
49461;BME280;35355;49.198;-0.368;2023-02-24T01:42:55;100973.56;;;7.24;85.45
49461;BME280;35355;49.198;-0.368;2023-02-24T01:45:25;100970.03;;;7.24;85.41
49461;BME280;35355;49.198;-0.368;2023-02-24T01:47:57;100978.78;;;7.26;85.33
49461;BME280;35355;49.198;-0.368;2023-02-24T01:50:25;100971.09;;;7.23;85.59
49461;BME280;35355;49.198;-0.368;2023-02-24T01:52:56;100965.19;;;7.26;85.21
49461;BME280;35355;49.198;-0.368;2023-02-24T01:55:28;100967.91;;;7.26;85.56
49461;BME280;35355;49.198;-0.368;2023-02-24T01:57:57;100966.25;;;7.25;85.55
49461;BME280;35355;49.198;-0.368;2023-02-24T02:00:24;100971.69;;;7.25;85.63
49461;BME280;35355;49.198;-0.368;2023-02-24T02:05:44;100946.44;;;7.24;85.33
49461;BME280;35355;49.198;-0.368;2023-02-24T02:08:15;100944.75;;;7.23;85.43
49461;BME280;35355;49.198;-0.368;2023-02-24T02:10:42;100950.44;;;7.22;85.43
49461;BME280;35355;49.198;-0.368;2023-02-24T02:13:15;100946.09;;;7.20;85.65
49461;BME280;35355;49.198;-0.368;2023-02-24T02:19:02;100947.13;;;7.19;85.33
49461;BME280;35355;49.198;-0.368;2023-02-24T02:32:40;100915.00;;;6.93;85.86
49461;BME280;35355;49.198;-0.368;2023-02-24T02:35:25;100920.50;;;6.86;85.89
49461;BME280;35355;49.198;-0.368;2023-02-24T02:40:36;100909.06;;;6.72;85.64
49461;BME280;35355;49.198;-0.368;2023-02-24T02:48:56;100889.06;;;6.55;86.26
49461;BME280;35355;49.198;-0.368;2023-02-24T02:51:29;100884.34;;;6.50;86.20
49461;BME280;35355;49.198;-0.368;2023-02-24T02:54:25;100877.13;;;6.44;86.10
49461;BME280;35355;49.198;-0.368;2023-02-24T02:57:03;100889.03;;;6.43;86.91
49461;BME280;35355;49.198;-0.368;2023-02-24T02:59:34;100883.25;;;6.39;86.57
49461;BME280;35355;49.198;-0.368;2023-02-24T03:02:03;100880.97;;;6.36;86.59
49461;BME280;35355;49.198;-0.368;2023-02-24T03:04:48;100872.84;;;6.36;86.21
49461;BME280;35355;49.198;-0.368;2023-02-24T03:07:16;100867.88;;;6.33;86.83
49461;BME280;35355;49.198;-0.368;2023-02-24T03:09:48;100870.00;;;6.31;86.66
49461;BME280;35355;49.198;-0.368;2023-02-24T03:12:17;100869.44;;;6.29;86.42
49461;BME280;35355;49.198;-0.368;2023-02-24T03:14:48;100869.63;;;6.27;87.00
49461;BME280;35355;49.198;-0.368;2023-02-24T03:17:19;100861.13;;;6.24;86.66
49461;BME280;35355;49.198;-0.368;2023-02-24T03:19:50;100852.66;;;6.20;87.12
49461;BME280;35355;49.198;-0.368;2023-02-24T03:22:34;100860.16;;;6.18;87.09
49461;BME280;35355;49.198;-0.368;2023-02-24T03:25:04;100846.25;;;6.14;86.46
49461;BME280;35355;49.198;-0.368;2023-02-24T03:27:39;100851.91;;;6.13;86.65
49461;BME280;35355;49.198;-0.368;2023-02-24T03:30:14;100865.69;;;6.11;86.98
49461;BME280;35355;49.198;-0.368;2023-02-24T03:32:53;100850.47;;;6.10;87.17
49461;BME280;35355;49.198;-0.368;2023-02-24T03:35:28;100849.44;;;6.11;87.06
49461;BME280;35355;49.198;-0.368;2023-02-24T03:37:56;100847.78;;;6.10;87.02
49461;BME280;35355;49.198;-0.368;2023-02-24T03:40:23;100853.19;;;6.10;86.94
49461;BME280;35355;49.198;-0.368;2023-02-24T03:43:02;100850.47;;;6.10;87.05
49461;BME280;35355;49.198;-0.368;2023-02-24T03:45:31;100851.31;;;6.11;86.48
49461;BME280;35355;49.198;-0.368;2023-02-24T03:47:59;100844.84;;;6.12;87.30
49461;BME280;35355;49.198;-0.368;2023-02-24T03:50:27;100841.88;;;6.13;87.16
49461;BME280;35355;49.198;-0.368;2023-02-24T03:53:09;100839.56;;;6.17;87.02
49461;BME280;35355;49.198;-0.368;2023-02-24T04:01:11;100841.59;;;6.22;86.85
49461;BME280;35355;49.198;-0.368;2023-02-24T04:06:38;100855.94;;;6.22;87.01
49461;BME280;35355;49.198;-0.368;2023-02-24T04:09:18;100848.63;;;6.23;87.36
49461;BME280;35355;49.198;-0.368;2023-02-24T04:12:05;100841.69;;;6.27;87.03
49461;BME280;35355;49.198;-0.368;2023-02-24T04:17:27;100855.41;;;6.32;87.13
49461;BME280;35355;49.198;-0.368;2023-02-24T04:19:57;100851.63;;;6.33;86.94
49461;BME280;35355;49.198;-0.368;2023-02-24T04:22:25;100847.63;;;6.36;87.51
49461;BME280;35355;49.198;-0.368;2023-02-24T04:24:56;100837.25;;;6.32;87.00
49461;BME280;35355;49.198;-0.368;2023-02-24T04:27:25;100846.66;;;6.30;87.03
49461;BME280;35355;49.198;-0.368;2023-02-24T04:29:54;100831.56;;;6.22;86.94
49461;BME280;35355;49.198;-0.368;2023-02-24T04:32:23;100836.75;;;6.24;87.40
49461;BME280;35355;49.198;-0.368;2023-02-24T04:34:51;100839.22;;;6.25;87.06
49461;BME280;35355;49.198;-0.368;2023-02-24T04:37:17;100841.69;;;6.27;86.98
49461;BME280;35355;49.198;-0.368;2023-02-24T04:39:47;100840.19;;;6.31;87.00
49461;BME280;35355;49.198;-0.368;2023-02-24T04:42:15;100847.84;;;6.34;87.09
49461;BME280;35355;49.198;-0.368;2023-02-24T04:44:41;100846.34;;;6.38;87.19
49461;BME280;35355;49.198;-0.368;2023-02-24T04:47:10;100843.97;;;6.42;86.62
49461;BME280;35355;49.198;-0.368;2023-02-24T04:49:36;100855.22;;;6.45;86.97
49461;BME280;35355;49.198;-0.368;2023-02-24T04:52:02;100850.38;;;6.47;87.17
49461;BME280;35355;49.198;-0.368;2023-02-24T04:54:27;100839.53;;;6.47;86.91
49461;BME280;35355;49.198;-0.368;2023-02-24T04:56:53;100847.66;;;6.47;86.44
49461;BME280;35355;49.198;-0.368;2023-02-24T04:59:20;100836.81;;;6.47;86.90
49461;BME280;35355;49.198;-0.368;2023-02-24T05:01:47;100832.81;;;6.50;86.44
49461;BME280;35355;49.198;-0.368;2023-02-24T05:04:16;100830.94;;;6.50;87.06
49461;BME280;35355;49.198;-0.368;2023-02-24T05:06:41;100825.50;;;6.50;86.48
49461;BME280;35355;49.198;-0.368;2023-02-24T05:09:12;100826.34;;;6.51;86.64
49461;BME280;35355;49.198;-0.368;2023-02-24T05:11:46;100817.59;;;6.49;86.32
49461;BME280;35355;49.198;-0.368;2023-02-24T05:14:15;100817.97;;;6.53;86.27
49461;BME280;35355;49.198;-0.368;2023-02-24T05:16:41;100811.34;;;6.48;86.48
49461;BME280;35355;49.198;-0.368;2023-02-24T05:19:11;100818.78;;;6.53;86.23
49461;BME280;35355;49.198;-0.368;2023-02-24T05:21:55;100820.69;;;6.53;86.31
49461;BME280;35355;49.198;-0.368;2023-02-24T05:24:23;100827.75;;;6.54;86.20
49461;BME280;35355;49.198;-0.368;2023-02-24T05:26:49;100822.09;;;6.55;85.94
49461;BME280;35355;49.198;-0.368;2023-02-24T05:29:22;100823.75;;;6.56;86.22
49461;BME280;35355;49.198;-0.368;2023-02-24T05:52:04;100805.09;;;5.87;85.76
49461;BME280;35355;49.198;-0.368;2023-02-24T05:54:41;100796.75;;;5.89;86.38
49461;BME280;35355;49.198;-0.368;2023-02-24T05:57:10;100787.94;;;5.93;86.47
49461;BME280;35355;49.198;-0.368;2023-02-24T05:59:40;100784.34;;;6.00;86.65
49461;BME280;35355;49.198;-0.368;2023-02-24T06:02:08;100793.00;;;6.08;86.41
49461;BME280;35355;49.198;-0.368;2023-02-24T06:04:35;100786.19;;;6.18;86.11
49461;BME280;35355;49.198;-0.368;2023-02-24T06:07:16;100770.16;;;6.16;85.98
49461;BME280;35355;49.198;-0.368;2023-02-24T06:09:46;100781.03;;;6.28;86.13
49461;BME280;35355;49.198;-0.368;2023-02-24T06:12:14;100774.09;;;6.32;86.29
49461;BME280;35355;49.198;-0.368;2023-02-24T06:14:40;100772.53;;;6.36;85.88
49461;BME280;35355;49.198;-0.368;2023-02-24T06:17:06;100769.38;;;6.39;86.31
49461;BME280;35355;49.198;-0.368;2023-02-24T06:19:32;100774.91;;;6.44;85.15
49461;BME280;35355;49.198;-0.368;2023-02-24T06:21:59;100768.22;;;6.47;86.08
49461;BME280;35355;49.198;-0.368;2023-02-24T06:24:31;100761.13;;;6.46;85.81
49461;BME280;35355;49.198;-0.368;2023-02-24T06:26:58;100761.72;;;6.48;85.16
49461;BME280;35355;49.198;-0.368;2023-02-24T06:29:34;100768.56;;;6.50;85.39
49461;BME280;35355;49.198;-0.368;2023-02-24T06:32:00;100752.91;;;6.53;85.33
49461;BME280;35355;49.198;-0.368;2023-02-24T06:34:33;100757.22;;;6.54;85.51
49461;BME280;35355;49.198;-0.368;2023-02-24T06:36:58;100755.38;;;6.54;84.84
49461;BME280;35355;49.198;-0.368;2023-02-24T06:39:23;100749.94;;;6.54;85.61
49461;BME280;35355;49.198;-0.368;2023-02-24T06:41:49;100754.28;;;6.55;85.24
49461;BME280;35355;49.198;-0.368;2023-02-24T06:44:16;100753.00;;;6.58;85.12
49461;BME280;35355;49.198;-0.368;2023-02-24T06:46:41;100759.00;;;6.60;85.53
49461;BME280;35355;49.198;-0.368;2023-02-24T06:49:07;100760.91;;;6.59;84.99
49461;BME280;35355;49.198;-0.368;2023-02-24T06:51:34;100764.66;;;6.58;85.41
49461;BME280;35355;49.198;-0.368;2023-02-24T06:53:59;100767.75;;;6.62;85.53
49461;BME280;35355;49.198;-0.368;2023-02-24T06:56:26;100764.19;;;6.61;84.81
49461;BME280;35355;49.198;-0.368;2023-02-24T06:58:53;100758.44;;;6.58;85.26
49461;BME280;35355;49.198;-0.368;2023-02-24T07:01:25;100764.44;;;6.60;84.76
49461;BME280;35355;49.198;-0.368;2023-02-24T07:03:56;100763.63;;;6.59;84.95
49461;BME280;35355;49.198;-0.368;2023-02-24T07:06:39;100763.84;;;6.58;84.95
49461;BME280;35355;49.198;-0.368;2023-02-24T07:09:09;100768.22;;;6.59;84.94
49461;BME280;35355;49.198;-0.368;2023-02-24T07:11:36;100770.31;;;6.57;85.08
49461;BME280;35355;49.198;-0.368;2023-02-24T07:14:03;100776.59;;;6.57;84.16
49461;BME280;35355;49.198;-0.368;2023-02-24T07:16:32;100770.31;;;6.57;84.47
49461;BME280;35355;49.198;-0.368;2023-02-24T07:19:06;100782.84;;;6.58;84.34
49461;BME280;35355;49.198;-0.368;2023-02-24T07:21:36;100766.47;;;6.53;84.54
49461;BME280;35355;49.198;-0.368;2023-02-24T07:24:06;100771.41;;;6.56;84.88
49461;BME280;35355;49.198;-0.368;2023-02-24T07:26:31;100769.50;;;6.56;84.74
49461;BME280;35355;49.198;-0.368;2023-02-24T07:28:58;100774.94;;;6.56;84.20
49461;BME280;35355;49.198;-0.368;2023-02-24T07:31:29;100778.22;;;6.58;84.54
49461;BME280;35355;49.198;-0.368;2023-02-24T07:33:56;100774.69;;;6.58;84.96
49461;BME280;35355;49.198;-0.368;2023-02-24T07:36:22;100771.50;;;6.61;84.17
49461;BME280;35355;49.198;-0.368;2023-02-24T07:38:52;100764.00;;;6.63;84.07
49461;BME280;35355;49.198;-0.368;2023-02-24T07:41:19;100762.31;;;6.62;84.42
49461;BME280;35355;49.198;-0.368;2023-02-24T07:43:50;100761.03;;;6.64;84.41
49461;BME280;35355;49.198;-0.368;2023-02-24T07:46:19;100763.28;;;6.67;84.43
49461;BME280;35355;49.198;-0.368;2023-02-24T07:48:45;100761.72;;;6.72;84.34
49461;BME280;35355;49.198;-0.368;2023-02-24T07:51:16;100752.53;;;6.73;84.57
49461;BME280;35355;49.198;-0.368;2023-02-24T07:53:42;100754.44;;;6.72;84.68
49461;BME280;35355;49.198;-0.368;2023-02-24T07:56:13;100750.44;;;6.75;84.14
49461;BME280;35355;49.198;-0.368;2023-02-24T07:58:48;100757.25;;;6.77;84.20
49461;BME280;35355;49.198;-0.368;2023-02-24T08:01:18;100756.19;;;6.78;83.98
49461;BME280;35355;49.198;-0.368;2023-02-24T08:03:51;100749.47;;;6.81;84.25
49461;BME280;35355;49.198;-0.368;2023-02-24T08:06:20;100738.25;;;6.77;84.05
49461;BME280;35355;49.198;-0.368;2023-02-24T08:08:55;100745.69;;;6.82;84.23
49461;BME280;35355;49.198;-0.368;2023-02-24T08:11:34;100736.50;;;6.83;84.23
49461;BME280;35355;49.198;-0.368;2023-02-24T08:14:01;100740.03;;;6.83;83.72
49461;BME280;35355;49.198;-0.368;2023-02-24T08:16:27;100738.97;;;6.84;84.14
49461;BME280;35355;49.198;-0.368;2023-02-24T08:19:06;100734.97;;;6.87;84.02
49461;BME280;35355;49.198;-0.368;2023-02-24T08:21:34;100726.00;;;6.87;83.68
49461;BME280;35355;49.198;-0.368;2023-02-24T08:24:12;100728.47;;;6.88;84.10
49461;BME280;35355;49.198;-0.368;2023-02-24T08:29:11;100726.34;;;6.90;83.31
49461;BME280;35355;49.198;-0.368;2023-02-24T08:31:37;100723.88;;;6.89;83.28
49461;BME280;35355;49.198;-0.368;2023-02-24T08:34:02;100735.91;;;6.93;82.96
49461;BME280;35355;49.198;-0.368;2023-02-24T08:36:28;100729.41;;;6.94;83.37
49461;BME280;35355;49.198;-0.368;2023-02-24T08:38:53;100724.56;;;6.96;83.36
49461;BME280;35355;49.198;-0.368;2023-02-24T08:41:21;100727.38;;;7.01;82.87
49461;BME280;35355;49.198;-0.368;2023-02-24T08:44:06;100733.66;;;7.01;82.80
49461;BME280;35355;49.198;-0.368;2023-02-24T08:46:34;100729.63;;;7.04;82.92
49461;BME280;35355;49.198;-0.368;2023-02-24T08:49:02;100720.78;;;7.09;83.17
49461;BME280;35355;49.198;-0.368;2023-02-24T08:51:36;100718.41;;;7.12;82.55
49461;BME280;35355;49.198;-0.368;2023-02-24T08:54:09;100719.59;;;7.16;82.25
49461;BME280;35355;49.198;-0.368;2023-02-24T08:56:41;100719.69;;;7.22;82.11
49461;BME280;35355;49.198;-0.368;2023-02-24T08:59:09;100718.72;;;7.28;81.97
49461;BME280;35355;49.198;-0.368;2023-02-24T09:01:54;100711.97;;;7.30;81.94
49461;BME280;35355;49.198;-0.368;2023-02-24T09:04:39;100715.53;;;7.31;81.43
49461;BME280;35355;49.198;-0.368;2023-02-24T09:07:04;100717.16;;;7.32;81.23
49461;BME280;35355;49.198;-0.368;2023-02-24T09:09:35;100718.59;;;7.34;81.47
49461;BME280;35355;49.198;-0.368;2023-02-24T09:12:05;100725.91;;;7.34;81.13
49461;BME280;35355;49.198;-0.368;2023-02-24T09:14:33;100724.25;;;7.33;81.08
49461;BME280;35355;49.198;-0.368;2023-02-24T09:17:03;100720.50;;;7.34;80.76
49461;BME280;35355;49.198;-0.368;2023-02-24T09:19:41;100725.44;;;7.37;81.48
49461;BME280;35355;49.198;-0.368;2023-02-24T09:22:25;100723.28;;;7.39;80.79
49461;BME280;35355;49.198;-0.368;2023-02-24T09:27:50;100715.84;;;7.46;80.33
49461;BME280;35355;49.198;-0.368;2023-02-24T09:30:28;100714.97;;;7.58;80.16
49461;BME280;35355;49.198;-0.368;2023-02-24T09:33:17;100717.28;;;7.66;80.09
49461;BME280;35355;49.198;-0.368;2023-02-24T09:35:51;100715.00;;;7.75;80.04
49461;BME280;35355;49.198;-0.368;2023-02-24T09:38:21;100708.94;;;7.84;79.60
49461;BME280;35355;49.198;-0.368;2023-02-24T09:41:23;100705.31;;;7.96;79.43
49461;BME280;35355;49.198;-0.368;2023-02-24T09:44:00;100706.34;;;8.06;78.61
49461;BME280;35355;49.198;-0.368;2023-02-24T09:46:30;100700.72;;;8.13;78.50
49461;BME280;35355;49.198;-0.368;2023-02-24T09:49:09;100699.16;;;8.17;78.66
49461;BME280;35355;49.198;-0.368;2023-02-24T09:51:37;100704.13;;;8.20;77.75
49461;BME280;35355;49.198;-0.368;2023-02-24T09:54:18;100698.09;;;8.18;78.08
49461;BME280;35355;49.198;-0.368;2023-02-24T09:57:03;100713.44;;;8.24;77.51
49461;BME280;35355;49.198;-0.368;2023-02-24T10:07:30;100716.72;;;8.26;77.33
49461;BME280;35355;49.198;-0.368;2023-02-24T10:10:09;100712.38;;;8.25;76.80
49461;BME280;35355;49.198;-0.368;2023-02-24T10:15:22;100703.72;;;8.29;76.42
49461;BME280;35355;49.198;-0.368;2023-02-24T10:18:49;100702.78;;;8.40;77.34
49461;BME280;35355;49.198;-0.368;2023-02-24T10:24:36;100704.94;;;8.38;76.79
49461;BME280;35355;49.198;-0.368;2023-02-24T10:27:20;100700.81;;;8.35;76.67
49461;BME280;35355;49.198;-0.368;2023-02-24T10:32:45;100697.13;;;8.41;76.58
49461;BME280;35355;49.198;-0.368;2023-02-24T10:35:14;100685.78;;;8.45;75.46
49461;BME280;35355;49.198;-0.368;2023-02-24T10:37:41;100691.03;;;8.51;75.07
49461;BME280;35355;49.198;-0.368;2023-02-24T10:40:07;100705.69;;;8.50;74.45
49461;BME280;35355;49.198;-0.368;2023-02-24T10:42:39;100703.38;;;8.42;74.55
49461;BME280;35355;49.198;-0.368;2023-02-24T10:45:15;100701.66;;;8.36;74.69
49461;BME280;35355;49.198;-0.368;2023-02-24T10:47:50;100691.34;;;8.38;75.41
49461;BME280;35355;49.198;-0.368;2023-02-24T10:50:37;100696.66;;;8.45;75.60
49461;BME280;35355;49.198;-0.368;2023-02-24T10:53:13;100689.31;;;8.45;75.31
49461;BME280;35355;49.198;-0.368;2023-02-24T10:55:58;100685.28;;;8.48;74.81
49461;BME280;35355;49.198;-0.368;2023-02-24T10:58:46;100682.81;;;8.46;74.33
49461;BME280;35355;49.198;-0.368;2023-02-24T11:01:29;100689.69;;;8.37;74.79
49461;BME280;35355;49.198;-0.368;2023-02-24T11:04:15;100681.38;;;8.26;74.26
49461;BME280;35355;49.198;-0.368;2023-02-24T11:07:11;100691.19;;;8.28;75.25
49461;BME280;35355;49.198;-0.368;2023-02-24T11:09:39;100686.56;;;8.28;74.58
49461;BME280;35355;49.198;-0.368;2023-02-24T11:12:21;100681.78;;;8.18;74.44
49461;BME280;35355;49.198;-0.368;2023-02-24T11:15:21;100679.06;;;8.01;75.43
49461;BME280;35355;49.198;-0.368;2023-02-24T11:18:06;100660.44;;;7.93;75.11
49461;BME280;35355;49.198;-0.368;2023-02-24T11:20:45;100666.31;;;8.02;75.77
49461;BME280;35355;49.198;-0.368;2023-02-24T11:23:14;100671.06;;;8.12;74.91
49461;BME280;35355;49.198;-0.368;2023-02-24T11:25:42;100657.06;;;8.20;74.61
49461;BME280;35355;49.198;-0.368;2023-02-24T11:38:46;100631.91;;;8.64;73.70
49461;BME280;35355;49.198;-0.368;2023-02-24T11:41:26;100634.00;;;8.56;73.73
49461;BME280;35355;49.198;-0.368;2023-02-24T11:44:16;100623.44;;;8.43;73.59
49461;BME280;35355;49.198;-0.368;2023-02-24T11:46:49;100609.59;;;8.28;72.53
49461;BME280;35355;49.198;-0.368;2023-02-24T11:49:44;100609.13;;;8.14;73.50
49461;BME280;35355;49.198;-0.368;2023-02-24T11:52:19;100609.47;;;8.00;72.86
49461;BME280;35355;49.198;-0.368;2023-02-24T11:54:52;100615.00;;;7.88;72.50
49461;BME280;35355;49.198;-0.368;2023-02-24T11:57:22;100604.53;;;7.80;72.46
49461;BME280;35355;49.198;-0.368;2023-02-24T12:00:15;100613.72;;;7.79;73.76
49461;BME280;35355;49.198;-0.368;2023-02-24T12:05:20;100601.41;;;7.88;73.44
49461;BME280;35355;49.198;-0.368;2023-02-24T12:08:10;100597.34;;;7.91;73.79
49461;BME280;35355;49.198;-0.368;2023-02-24T12:10:41;100607.97;;;7.93;72.64
49461;BME280;35355;49.198;-0.368;2023-02-24T12:13:15;100596.03;;;7.94;72.93
49461;BME280;35355;49.198;-0.368;2023-02-24T12:16:01;100593.41;;;7.99;72.77
49461;BME280;35355;49.198;-0.368;2023-02-24T12:18:38;100591.81;;;8.03;72.65
49461;BME280;35355;49.198;-0.368;2023-02-24T12:21:17;100580.94;;;8.03;72.75
49461;BME280;35355;49.198;-0.368;2023-02-24T12:23:46;100572.47;;;7.99;72.00
49461;BME280;35355;49.198;-0.368;2023-02-24T12:26:22;100572.22;;;8.01;72.42
49461;BME280;35355;49.198;-0.368;2023-02-24T12:34:34;100558.50;;;7.90;71.95
49461;BME280;35355;49.198;-0.368;2023-02-24T12:46:07;100550.50;;;7.67;72.50
49461;BME280;35355;49.198;-0.368;2023-02-24T12:54:28;100537.69;;;7.62;72.95
49461;BME280;35355;49.198;-0.368;2023-02-24T12:59:28;100528.47;;;7.63;72.73
49461;BME280;35355;49.198;-0.368;2023-02-24T13:04:39;100527.97;;;7.66;73.15
49461;BME280;35355;49.198;-0.368;2023-02-24T13:10:28;100520.38;;;7.68;73.02
49461;BME280;35355;49.198;-0.368;2023-02-24T13:15:33;100505.41;;;7.66;72.33
49461;BME280;35355;49.198;-0.368;2023-02-24T13:17:58;100508.94;;;7.66;72.21
49461;BME280;35355;49.198;-0.368;2023-02-24T13:20:36;100502.44;;;7.67;72.03
49461;BME280;35355;49.198;-0.368;2023-02-24T13:23:18;100502.69;;;7.66;72.48
49461;BME280;35355;49.198;-0.368;2023-02-24T13:25:50;100496.69;;;7.64;72.19
49461;BME280;35355;49.198;-0.368;2023-02-24T13:28:31;100499.91;;;7.61;72.37
49461;BME280;35355;49.198;-0.368;2023-02-24T13:31:05;100492.25;;;7.58;71.33
49461;BME280;35355;49.198;-0.368;2023-02-24T13:33:52;100493.06;;;7.58;72.75
49461;BME280;35355;49.198;-0.368;2023-02-24T13:39:04;100492.25;;;7.58;72.31
49461;BME280;35355;49.198;-0.368;2023-02-24T13:44:02;100481.53;;;7.51;71.46
49461;BME280;35355;49.198;-0.368;2023-02-24T13:49:18;100481.78;;;7.49;73.22
49461;BME280;35355;49.198;-0.368;2023-02-24T13:51:59;100479.06;;;7.49;72.34
49461;BME280;35355;49.198;-0.368;2023-02-24T13:55:25;100465.25;;;7.51;72.39
49461;BME280;35355;49.198;-0.368;2023-02-24T14:00:46;100472.06;;;7.53;71.56
49461;BME280;35355;49.198;-0.368;2023-02-24T14:21:19;100438.34;;;6.98;72.58
49461;BME280;35355;49.198;-0.368;2023-02-24T14:24:03;100437.25;;;6.99;72.48
49461;BME280;35355;49.198;-0.368;2023-02-24T14:26:41;100433.00;;;7.03;72.01
49461;BME280;35355;49.198;-0.368;2023-02-24T14:29:07;100428.22;;;7.11;71.58
49461;BME280;35355;49.198;-0.368;2023-02-24T14:31:33;100436.78;;;7.19;71.43
49461;BME280;35355;49.198;-0.368;2023-02-24T14:34:01;100435.78;;;7.26;71.99
49461;BME280;35355;49.198;-0.368;2023-02-24T14:36:32;100423.94;;;7.32;71.32
49461;BME280;35355;49.198;-0.368;2023-02-24T14:39:28;100427.56;;;7.37;71.84
49461;BME280;35355;49.198;-0.368;2023-02-24T14:44:31;100440.97;;;7.44;71.45
49461;BME280;35355;49.198;-0.368;2023-02-24T14:47:01;100444.00;;;7.48;71.52
49461;BME280;35355;49.198;-0.368;2023-02-24T14:49:32;100432.34;;;7.47;71.85
49461;BME280;35355;49.198;-0.368;2023-02-24T14:52:08;100439.16;;;7.50;71.70
49461;BME280;35355;49.198;-0.368;2023-02-24T14:57:14;100427.97;;;7.46;71.27
49461;BME280;35355;49.198;-0.368;2023-02-24T14:59:42;100431.19;;;7.43;73.27
49461;BME280;35355;49.198;-0.368;2023-02-24T15:02:15;100430.03;;;7.39;72.30
49461;BME280;35355;49.198;-0.368;2023-02-24T15:04:44;100424.59;;;7.39;71.55
49461;BME280;35355;49.198;-0.368;2023-02-24T15:07:23;100428.38;;;7.38;72.23
49461;BME280;35355;49.198;-0.368;2023-02-24T15:09:50;100429.47;;;7.37;71.80
49461;BME280;35355;49.198;-0.368;2023-02-24T15:12:32;100434.31;;;7.35;72.64
49461;BME280;35355;49.198;-0.368;2023-02-24T15:15:12;100429.38;;;7.32;71.79
49461;BME280;35355;49.198;-0.368;2023-02-24T15:17:41;100433.19;;;7.31;71.62
49461;BME280;35355;49.198;-0.368;2023-02-24T15:20:27;100425.28;;;7.29;72.30
49461;BME280;35355;49.198;-0.368;2023-02-24T15:22:53;100422.78;;;7.28;72.27
49461;BME280;35355;49.198;-0.368;2023-02-24T15:25:26;100427.16;;;7.29;72.65
49461;BME280;35355;49.198;-0.368;2023-02-24T15:27:59;100422.22;;;7.26;72.26
49461;BME280;35355;49.198;-0.368;2023-02-24T15:30:51;100421.66;;;7.24;73.25
49461;BME280;35355;49.198;-0.368;2023-02-24T15:33:23;100420.81;;;7.23;72.58
49461;BME280;35355;49.198;-0.368;2023-02-24T15:35:51;100416.13;;;7.18;72.96
49461;BME280;35355;49.198;-0.368;2023-02-24T15:38:35;100421.56;;;7.18;73.59
49461;BME280;35355;49.198;-0.368;2023-02-24T15:41:02;100413.09;;;7.15;73.16
49461;BME280;35355;49.198;-0.368;2023-02-24T15:43:50;100407.69;;;7.15;73.63
49461;BME280;35355;49.198;-0.368;2023-02-24T15:48:54;100407.34;;;7.11;73.42
49461;BME280;35355;49.198;-0.368;2023-02-24T15:51:31;100402.75;;;7.12;74.11
49461;BME280;35355;49.198;-0.368;2023-02-24T15:53:59;100401.91;;;7.11;73.49
49461;BME280;35355;49.198;-0.368;2023-02-24T15:56:25;100400.03;;;7.12;73.84
49461;BME280;35355;49.198;-0.368;2023-02-24T15:58:51;100390.22;;;7.11;74.05